Time;durP1;ratioP1;P1;durP2;ratioP2;P2;SDS_P1;SDS_P2;PMS_P1;PMS_P2;Temp;Humidity;BMP_temperature;BMP_pressure;BME280_temperature;BME280_humidity;BME280_pressure;Samples;Min_cycle;Max_cycle;Signal;HPM_P1;HPM_P2
2021/11/02 00:00:48;;;;;;;8.48;4.90;;;;;;;5.22;100.00;99738.44;2091278;28;20028;-63
2021/11/02 00:01:48;;;;;;;6.70;3.57;;;;;;;5.20;100.00;99741.06;2091286;28;20044;-63
2021/11/02 00:02:48;;;;;;;11.20;3.30;;;;;;;5.19;100.00;99739.41;2091345;28;20095;-62
2021/11/02 00:03:49;;;;;;;9.53;4.40;;;;;;;5.17;100.00;99732.59;2091171;28;20506;-62
2021/11/02 00:04:49;;;;;;;12.50;4.50;;;;;;;5.19;100.00;99735.94;2090634;28;20052;-62
2021/11/02 00:05:49;;;;;;;9.03;3.33;;;;;;;5.18;100.00;99731.69;2090632;28;20036;-62
2021/11/02 00:06:50;;;;;;;7.27;3.80;;;;;;;5.19;100.00;99735.94;2091206;28;20096;-62
2021/11/02 00:07:51;;;;;;;8.80;4.28;;;;;;;5.20;100.00;99728.13;2090563;28;20094;-62
2021/11/02 00:08:51;;;;;;;9.00;3.53;;;;;;;5.26;100.00;99733.09;2090619;28;20044;-63
2021/11/02 00:09:54;;;;;;;9.90;4.07;;;;;;;5.28;100.00;99735.63;2091223;28;20024;-62
2021/11/02 00:10:55;;;;;;;10.13;4.25;;;;;;;5.24;100.00;99739.22;2090341;28;20045;-63
2021/11/02 00:11:55;;;;;;;7.50;3.80;;;;;;;5.23;100.00;99729.75;2090561;28;20057;-62
2021/11/02 00:12:56;;;;;;;7.00;3.70;;;;;;;5.23;100.00;99737.53;2091166;28;20037;-62
2021/11/02 00:14:01;;;;;;;7.07;3.67;;;;;;;5.18;100.00;99731.69;2091168;28;20025;-62
2021/11/02 00:15:01;;;;;;;6.72;3.35;;;;;;;5.17;100.00;99733.44;2091187;28;20470;-63
2021/11/02 00:16:06;;;;;;;8.30;3.97;;;;;;;5.18;100.00;99731.69;2091223;28;20025;-62
2021/11/02 00:17:21;;;;;;;7.05;3.85;;;;;;;5.13;100.00;99735.28;2090479;28;20345;-62
2021/11/02 00:18:23;;;;;;;7.00;3.50;;;;;;;5.09;100.00;99738.03;2090667;28;20108;-62
2021/11/02 00:19:26;;;;;;;8.23;3.78;;;;;;;5.07;100.00;99727.78;2091226;28;20021;-62
2021/11/02 00:20:27;;;;;;;5.70;3.47;;;;;;;5.12;100.00;99735.34;2091164;28;20025;-63
2021/11/02 00:21:33;;;;;;;6.80;4.10;;;;;;;5.15;100.00;99728.34;2091285;28;20017;-63
2021/11/02 00:22:36;;;;;;;9.35;4.00;;;;;;;5.18;100.00;99727.38;2090876;28;20056;-62
2021/11/02 00:23:37;;;;;;;8.52;3.90;;;;;;;5.17;100.00;99735.19;2090997;28;20029;-62
2021/11/02 00:24:43;;;;;;;8.20;3.97;;;;;;;5.14;100.00;99736.97;2091117;28;20482;-62
2021/11/02 00:25:44;;;;;;;10.88;3.63;;;;;;;5.10;100.00;99729.41;2091052;28;20025;-62
2021/11/02 00:26:44;;;;;;;10.70;4.50;;;;;;;5.08;100.00;99742.38;2090453;28;20472;-62
2021/11/02 00:27:44;;;;;;;7.57;3.97;;;;;;;5.09;100.00;99735.47;2090433;28;20287;-62
2021/11/02 00:28:45;;;;;;;7.13;3.53;;;;;;;5.12;100.00;99737.94;2090469;28;20029;-63
2021/11/02 00:29:45;;;;;;;7.00;3.57;;;;;;;5.12;100.00;99738.78;2091006;28;20037;-62
2021/11/02 00:30:45;;;;;;;5.17;3.43;;;;;;;5.11;100.00;99736.25;2091032;28;20035;-63
2021/11/02 00:31:46;;;;;;;5.90;3.70;;;;;;;5.10;100.00;99734.56;2091133;28;20139;-64
2021/11/02 00:32:48;;;;;;;8.23;3.87;;;;;;;5.14;100.00;99726.63;2090594;28;20025;-62
2021/11/02 00:33:49;;;;;;;7.93;4.20;;;;;;;5.17;100.00;99730.00;2090278;28;20017;-63
2021/11/02 00:34:49;;;;;;;5.30;3.20;;;;;;;5.18;100.00;99727.38;2090396;28;20033;-62
2021/11/02 00:35:50;;;;;;;7.65;3.85;;;;;;;5.18;100.00;99732.53;2090945;28;20104;-63
2021/11/02 00:36:50;;;;;;;7.73;3.60;;;;;;;5.17;100.00;99724.84;2091069;28;20021;-63
2021/11/02 00:37:52;;;;;;;7.27;3.40;;;;;;;5.12;100.00;99728.44;2091001;28;20032;-63
2021/11/02 00:38:52;;;;;;;6.88;3.67;;;;;;;5.11;100.00;99719.00;2090981;28;20028;-62
2021/11/02 00:39:53;;;;;;;8.13;3.10;;;;;;;5.09;100.00;99730.28;2091059;28;20537;-62
2021/11/02 00:40:53;;;;;;;5.90;3.42;;;;;;;5.07;100.00;99725.19;2090978;28;20040;-63
2021/11/02 00:41:54;;;;;;;7.77;3.40;;;;;;;5.05;100.00;99731.31;2090988;28;20051;-63
2021/11/02 00:42:57;;;;;;;8.23;4.57;;;;;;;5.02;100.00;99727.09;2090294;28;20037;-63
2021/11/02 00:43:58;;;;;;;5.93;3.83;;;;;;;5.03;100.00;99726.19;2090282;28;20025;-62
2021/11/02 00:45:00;;;;;;;6.53;3.83;;;;;;;5.03;100.00;99723.59;2090948;28;20493;-62
2021/11/02 00:46:00;;;;;;;9.27;3.35;;;;;;;5.01;100.00;99722.81;2090923;28;20779;-62
2021/11/02 00:47:01;;;;;;;5.87;3.30;;;;;;;4.97;100.00;99719.53;2090902;28;20067;-62
2021/11/02 00:48:12;;;;;;;7.23;3.57;;;;;;;4.95;100.00;99723.03;2090917;28;20028;-63
2021/11/02 00:49:18;;;;;;;4.97;3.03;;;;;;;4.94;100.00;99723.94;2090926;28;20100;-63
2021/11/02 00:50:19;;;;;;;8.63;2.78;;;;;;;4.96;100.00;99727.34;2090142;28;20364;-62
2021/11/02 00:51:19;;;;;;;7.75;3.92;;;;;;;4.98;100.00;99730.69;2090293;28;20067;-63
2021/11/02 00:52:20;;;;;;;7.53;3.60;;;;;;;4.94;100.00;99729.13;2090274;28;20442;-63
2021/11/02 00:53:21;;;;;;;11.55;3.50;;;;;;;4.98;100.00;99736.72;2090838;28;20050;-63
2021/11/02 00:54:22;;;;;;;6.63;3.08;;;;;;;4.97;100.00;99729.00;2090865;28;20425;-63
2021/11/02 00:55:22;;;;;;;5.60;3.33;;;;;;;4.98;100.00;99731.53;2090884;28;20029;-63
2021/11/02 00:56:22;;;;;;;6.07;2.87;;;;;;;4.93;100.00;99728.25;2090907;28;20493;-63
2021/11/02 00:57:23;;;;;;;5.53;3.03;;;;;;;4.90;100.00;99729.22;2090241;28;20029;-63
2021/11/02 00:58:25;;;;;;;7.70;3.17;;;;;;;4.92;100.00;99730.94;2081966;28;20024;-62
2021/11/02 00:59:25;;;;;;;7.80;3.63;;;;;;;4.89;100.00;99726.69;2081907;28;20311;-61
2021/11/02 01:00:26;;;;;;;8.27;3.90;;;;;;;4.87;100.00;99723.34;2090212;28;20414;-62
2021/11/02 01:01:26;;;;;;;13.17;4.03;;;;;;;4.88;100.00;99720.69;2090123;28;20024;-62
2021/11/02 01:02:26;;;;;;;6.83;4.13;;;;;;;4.86;100.00;99726.81;2090230;28;20096;-62
2021/11/02 01:03:27;;;;;;;4.77;3.30;;;;;;;4.85;100.00;99719.94;2090674;28;20552;-63
2021/11/02 01:04:27;;;;;;;8.63;2.90;;;;;;;4.80;100.00;99730.47;2090791;28;20025;-62
2021/11/02 01:05:28;;;;;;;6.88;3.22;;;;;;;4.78;100.00;99729.69;2090816;28;20070;-63
2021/11/02 01:06:28;;;;;;;7.40;3.03;;;;;;;4.76;100.00;99732.31;2090783;28;20027;-63
2021/11/02 01:07:28;;;;;;;5.43;3.10;;;;;;;4.74;100.00;99731.53;2090751;28;20087;-62
2021/11/02 01:08:29;;;;;;;7.97;3.23;;;;;;;4.77;100.00;99730.59;2090760;28;20124;-63
2021/11/02 01:09:29;;;;;;;5.30;3.20;;;;;;;4.80;100.00;99740.81;2090128;28;20124;-62
2021/11/02 01:10:30;;;;;;;6.17;2.90;;;;;;;4.80;100.00;99732.22;2090207;28;20287;-63
2021/11/02 01:11:30;;;;;;;6.75;3.50;;;;;;;4.82;100.00;99728.66;2090685;28;20044;-63
2021/11/02 01:12:31;;;;;;;7.35;3.22;;;;;;;4.83;100.00;99727.75;2090114;28;20119;-63
2021/11/02 01:13:32;;;;;;;3.95;2.80;;;;;;;4.83;100.00;99732.09;2090119;28;20571;-62
2021/11/02 01:14:32;;;;;;;4.32;3.03;;;;;;;4.81;100.00;99729.56;2090073;28;20063;-62
2021/11/02 01:15:32;;;;;;;7.73;4.50;;;;;;;4.79;100.00;99731.34;2090100;28;20028;-62
2021/11/02 01:16:34;;;;;;;7.83;3.10;;;;;;;4.81;100.00;99724.41;2090719;28;20036;-62
2021/11/02 01:17:35;;;;;;;;;;;;;;;4.82;100.00;99731.25;2091140;28;20082;-63
2021/11/02 01:18:35;;;;;;;6.78;3.03;;;;;;;4.83;100.00;99722.59;2090628;28;19958;-63
2021/11/02 01:19:36;;;;;;;6.87;2.60;;;;;;;4.83;100.00;99727.75;2090675;28;20381;-63
2021/11/02 01:20:37;;;;;;;7.07;3.03;;;;;;;4.82;100.00;99731.25;2090743;28;20013;-63
2021/11/02 01:21:38;;;;;;;6.25;3.45;;;;;;;4.79;100.00;99726.19;2090610;28;20027;-63
2021/11/02 01:22:39;;;;;;;8.00;4.23;;;;;;;4.76;100.00;99731.50;2090592;28;20048;-63
2021/11/02 01:23:39;;;;;;;;;;;;;;;4.74;100.00;99734.13;2090926;28;20040;-63
2021/11/02 01:24:40;;;;;;;7.20;3.23;;;;;;;4.74;100.00;99730.69;2090612;28;20288;-63
2021/11/02 01:25:40;;;;;;;5.33;3.00;;;;;;;4.72;100.00;99737.66;2090688;28;20362;-63
2021/11/02 01:26:40;;;;;;;6.57;3.13;;;;;;;4.75;100.00;99733.22;2089981;28;20021;-62
2021/11/02 01:27:41;;;;;;;5.67;3.07;;;;;;;4.75;100.00;99734.94;2090042;28;20147;-63
2021/11/02 01:28:41;;;;;;;6.85;3.15;;;;;;;4.74;100.00;99736.72;2090676;28;20060;-63
2021/11/02 01:29:42;;;;;;;8.37;3.27;;;;;;;4.74;100.00;99734.13;2090621;28;20474;-63
2021/11/02 01:30:42;;;;;;;4.67;2.63;;;;;;;4.74;100.00;99728.09;2090609;28;20017;-63
2021/11/02 01:31:44;;;;;;;7.20;3.47;;;;;;;4.70;100.00;99737.72;2090541;28;20021;-62
2021/11/02 01:32:44;;;;;;;8.38;2.97;;;;;;;4.69;100.00;99730.03;2090619;28;20021;-63
2021/11/02 01:33:45;;;;;;;6.53;3.08;;;;;;;4.68;100.00;99728.34;2090504;28;20100;-63
2021/11/02 01:34:45;;;;;;;5.77;3.10;;;;;;;4.70;100.00;99735.13;2090554;28;20378;-63
2021/11/02 01:35:45;;;;;;;5.50;3.10;;;;;;;4.73;100.00;99734.19;2090478;28;20027;-63
2021/11/02 01:36:48;;;;;;;5.67;2.93;;;;;;;4.75;100.00;99730.63;2090499;28;20024;-63
2021/11/02 01:37:48;;;;;;;5.97;3.15;;;;;;;4.75;100.00;99733.22;2090508;28;20029;-62
2021/11/02 01:38:49;;;;;;;7.73;3.40;;;;;;;4.75;100.00;99734.94;2090503;28;20017;-63
2021/11/02 01:39:49;;;;;;;6.37;3.27;;;;;;;4.78;100.00;99734.84;2089811;28;20492;-63
2021/11/02 01:40:51;;;;;;;10.97;3.90;;;;;;;4.81;100.00;99734.75;2089957;28;20098;-64
2021/11/02 01:41:52;;;;;;;7.13;3.65;;;;;;;4.79;100.00;99736.53;2089817;28;20104;-64
2021/11/02 01:42:52;;;;;;;7.88;3.10;;;;;;;4.75;100.00;99729.78;2089916;28;20032;-63
2021/11/02 01:43:53;;;;;;;5.47;3.10;;;;;;;4.75;100.00;99734.94;2090359;28;20033;-63
2021/11/02 01:44:55;;;;;;;4.78;3.28;;;;;;;4.73;100.00;99726.44;2089172;28;20287;-63
2021/11/02 01:45:55;;;;;;;6.55;2.95;;;;;;;4.73;100.00;99731.59;2089763;28;20032;-63
2021/11/02 01:46:56;;;;;;;6.30;3.67;;;;;;;4.73;100.00;99732.41;2089920;28;20456;-64
2021/11/02 01:47:57;;;;;;;5.18;2.88;;;;;;;4.75;100.00;99734.94;2090392;28;20021;-64
2021/11/02 01:48:59;;;;;;;8.82;2.97;;;;;;;4.74;100.00;99731.53;2089783;28;20063;-63
2021/11/02 01:50:00;;;;;;;7.68;3.60;;;;;;;4.70;100.00;99737.72;2089784;28;20471;-63
2021/11/02 01:51:01;;;;;;;5.45;2.85;;;;;;;4.71;100.00;99734.22;2090519;28;20051;-63
2021/11/02 01:52:02;;;;;;;7.00;3.40;;;;;;;4.69;100.00;99725.69;2090469;28;20135;-64
2021/11/02 01:53:02;;;;;;;6.18;2.80;;;;;;;4.70;100.00;99726.53;2090437;28;20386;-63
2021/11/02 01:54:05;;;;;;;5.73;3.57;;;;;;;4.73;100.00;99736.75;2090400;28;20013;-63
2021/11/02 01:55:06;;;;;;;6.97;3.15;;;;;;;4.72;100.00;99730.75;2090390;28;20107;-63
2021/11/02 01:56:07;;;;;;;6.53;2.92;;;;;;;4.71;100.00;99738.53;2090392;28;20505;-63
2021/11/02 01:57:08;;;;;;;5.40;2.78;;;;;;;4.66;100.00;99722.38;2090412;28;20021;-64
2021/11/02 01:58:11;;;;;;;5.78;2.83;;;;;;;4.63;100.00;99724.16;2089721;28;20041;-63
2021/11/02 01:59:13;;;;;;;7.78;3.00;;;;;;;4.64;100.00;99732.75;2089805;28;20033;-64
2021/11/02 02:00:16;;;;;;;6.03;2.70;;;;;;;4.63;100.00;99726.75;2090247;28;20017;-63
2021/11/02 02:01:51;;;;;;;7.25;2.80;;;;;;;4.63;100.00;99721.56;2090340;28;20039;-63
2021/11/02 02:02:59;;;;;;;7.15;2.35;;;;;;;4.58;100.00;99723.47;2089532;28;20021;-63
2021/11/02 02:04:15;;;;;;;5.57;2.75;;;;;;;4.56;100.00;99727.03;2089784;28;20020;-64
2021/11/02 02:05:27;;;;;;;5.07;2.80;;;;;;;4.55;100.00;99718.41;2089631;28;20024;-63
2021/11/02 02:06:54;;;;;;;7.47;3.42;;;;;;;4.55;100.00;99722.75;2089833;28;20033;-63
2021/11/02 02:08:06;;;;;;;3.72;2.38;;;;;;;4.53;100.00;99724.53;2090309;28;20039;-63
2021/11/02 02:09:17;;;;;;;6.72;3.03;;;;;;;4.53;100.00;99725.41;2089543;28;20025;-63
2021/11/02 02:10:27;;;;;;;4.35;2.47;;;;;;;4.53;100.00;99725.41;2089833;28;20087;-63
2021/11/02 02:11:39;;;;;;;5.18;3.03;;;;;;;4.57;100.00;99719.22;2090304;28;20036;-63
2021/11/02 02:12:44;;;;;;;4.65;2.38;;;;;;;4.57;100.00;99721.81;2090303;28;20021;-63
2021/11/02 02:13:51;;;;;;;5.95;3.53;;;;;;;4.60;100.00;99720.84;2090229;28;20032;-63
2021/11/02 02:15:11;;;;;;;5.47;2.70;;;;;;;4.55;100.00;99723.59;2090234;28;20395;-63
2021/11/02 02:16:16;;;;;;;6.28;2.97;;;;;;;4.55;100.00;99727.94;2090228;28;20021;-63
2021/11/02 02:17:23;;;;;;;6.13;3.17;;;;;;;4.57;100.00;99720.94;2089657;28;20070;-63
2021/11/02 02:18:40;;;;;;;5.60;3.10;;;;;;;4.55;100.00;99718.41;2089545;28;20564;-63
2021/11/02 02:19:52;;;;;;;8.20;3.13;;;;;;;4.54;100.00;99721.91;2089747;28;20514;-63
2021/11/02 02:21:20;;;;;;;6.80;3.00;;;;;;;4.50;100.00;99718.59;2090196;28;20107;-63
2021/11/02 02:22:23;;;;;;;6.85;2.67;;;;;;;4.42;100.00;99723.19;2090133;28;20041;-63
2021/11/02 02:23:55;;;;;;;9.15;3.10;;;;;;;4.38;100.00;99722.44;2090097;28;20036;-62
2021/11/02 02:25:18;;;;;;;6.35;2.90;;;;;;;4.35;100.00;99722.53;2090215;28;20108;-63
2021/11/02 02:26:52;;;;;;;10.25;3.10;;;;;;;4.34;100.00;99715.69;2090240;28;20028;-63
2021/11/02 02:28:01;;;;;;;5.78;3.28;;;;;;;4.37;100.00;99719.91;2088125;28;20498;-64
2021/11/02 02:29:05;;;;;;;5.50;3.03;;;;;;;4.40;100.00;99716.38;2090184;28;20108;-63
2021/11/02 02:30:12;;;;;;;6.05;2.92;;;;;;;4.37;100.00;99720.75;2090184;28;20021;-63
2021/11/02 02:31:15;;;;;;;7.47;3.03;;;;;;;4.36;100.00;99724.25;2090223;28;20047;-63
2021/11/02 02:32:21;;;;;;;5.05;2.55;;;;;;;4.38;100.00;99722.44;2090139;28;20070;-63
2021/11/02 02:33:26;;;;;;;6.45;3.00;;;;;;;4.36;100.00;99719.09;2090124;28;20052;-63
2021/11/02 02:34:27;;;;;;;5.10;2.67;;;;;;;4.36;100.00;99716.50;2090134;28;20479;-63
2021/11/02 02:35:27;;;;;;;6.53;3.03;;;;;;;4.40;100.00;99713.78;2090135;28;20078;-62
2021/11/02 02:36:32;;;;;;;5.40;3.08;;;;;;;4.38;100.00;99712.09;2090094;28;20029;-63
2021/11/02 02:37:33;;;;;;;4.75;2.92;;;;;;;4.37;100.00;99709.56;2090188;28;20021;-63
2021/11/02 02:38:38;;;;;;;6.85;3.03;;;;;;;4.33;100.00;99710.56;2090138;28;20024;-63
2021/11/02 02:39:39;;;;;;;5.32;2.63;;;;;;;4.27;100.00;99714.22;2089481;28;20052;-63
2021/11/02 02:40:41;;;;;;;6.35;3.17;;;;;;;4.30;100.00;99708.94;2081350;28;20053;-63
2021/11/02 02:41:43;;;;;;;7.60;2.58;;;;;;;4.33;100.00;99713.16;2089530;28;20099;-63
2021/11/02 02:42:46;;;;;;;4.18;2.58;;;;;;;4.29;100.00;99707.28;2090191;28;20023;-63
2021/11/02 02:43:48;;;;;;;5.55;3.05;;;;;;;4.30;100.00;99708.09;2089893;28;20040;-63
2021/11/02 02:44:51;;;;;;;5.43;2.58;;;;;;;4.30;100.00;99703.78;2090126;28;20025;-63
2021/11/02 02:45:57;;;;;;;4.32;2.60;;;;;;;4.31;100.00;99705.47;2090125;28;20490;-63
2021/11/02 02:46:59;;;;;;;3.70;2.65;;;;;;;4.31;100.00;99699.47;2089395;28;20072;-62
2021/11/02 02:48:01;;;;;;;6.03;2.50;;;;;;;4.30;100.00;99702.94;2089512;28;20506;-63
2021/11/02 02:49:03;;;;;;;3.92;2.40;;;;;;;4.34;100.00;99702.78;2089440;28;20033;-62
2021/11/02 02:50:05;;;;;;;5.15;2.85;;;;;;;4.34;100.00;99695.03;2081271;28;20049;-62
2021/11/02 02:51:07;;;;;;;4.57;2.75;;;;;;;4.33;100.00;99695.94;2089612;28;20552;-63
2021/11/02 02:52:09;;;;;;;7.15;2.83;;;;;;;4.35;100.00;99696.72;2090053;28;20490;-62
2021/11/02 02:53:09;;;;;;;6.18;2.92;;;;;;;4.37;100.00;99691.50;2089431;28;20029;-63
2021/11/02 02:54:12;;;;;;;6.87;2.67;;;;;;;4.33;100.00;99693.34;2089484;28;20025;-62
2021/11/02 02:55:15;;;;;;;11.60;3.30;;;;;;;4.34;100.00;99692.44;2090063;28;20489;-64
2021/11/02 02:56:18;;;;;;;6.38;2.80;;;;;;;4.36;100.00;99689.81;2091212;28;20025;-63
2021/11/02 02:57:23;;;;;;;5.72;2.72;;;;;;;4.34;100.00;99695.03;2091140;28;20056;-63
2021/11/02 02:58:24;;;;;;;8.13;2.60;;;;;;;4.33;100.00;99688.19;2091192;28;20037;-63
2021/11/02 02:59:26;;;;;;;7.72;3.00;;;;;;;4.32;100.00;99686.50;2091776;28;20477;-63
2021/11/02 03:00:26;;;;;;;5.28;2.70;;;;;;;4.32;100.00;99689.09;2091660;28;20039;-63
2021/11/02 03:01:27;;;;;;;5.03;2.53;;;;;;;4.34;100.00;99697.63;2091733;28;20478;-63
2021/11/02 03:02:31;;;;;;;5.70;2.60;;;;;;;4.33;100.00;99703.69;2091782;28;20048;-63
2021/11/02 03:03:33;;;;;;;8.07;3.35;;;;;;;4.39;100.00;99694.88;2091605;28;20435;-62
2021/11/02 03:04:34;;;;;;;7.95;2.67;;;;;;;4.36;100.00;99698.41;2091711;28;20474;-63
2021/11/02 03:05:35;;;;;;;7.03;2.97;;;;;;;4.36;100.00;99697.56;2091693;28;20029;-62
2021/11/02 03:06:37;;;;;;;6.63;2.63;;;;;;;4.34;100.00;99697.63;2091064;28;20379;-63
2021/11/02 03:07:38;;;;;;;6.50;2.63;;;;;;;4.37;100.00;99694.94;2091157;28;20023;-63
2021/11/02 03:08:39;;;;;;;6.43;2.40;;;;;;;4.38;100.00;99696.59;2091673;28;20021;-62
2021/11/02 03:09:42;;;;;;;4.70;2.50;;;;;;;4.41;100.00;99697.41;2091707;28;20278;-63
2021/11/02 03:10:44;;;;;;;5.25;2.58;;;;;;;4.39;100.00;99697.47;2091669;28;20290;-62
2021/11/02 03:11:45;;;;;;;7.35;2.95;;;;;;;4.35;100.00;99701.06;2091621;28;20107;-62
2021/11/02 03:12:47;;;;;;;6.35;3.00;;;;;;;4.35;100.00;99696.72;2091613;28;20120;-62
2021/11/02 03:13:53;;;;;;;7.28;2.22;;;;;;;4.34;100.00;99695.03;2091640;28;20078;-63
2021/11/02 03:17:07;;;;;;;6.40;2.83;;;;;;;4.31;100.00;99700.28;2091731;28;20037;-63
2021/11/02 03:18:48;;;;;;;5.13;2.65;;;;;;;4.33;100.00;99703.69;2091578;28;20524;-63
2021/11/02 03:45:06;;;;;;;5.53;2.10;;;;;;;4.69;100.00;99696.41;2091513;28;20043;-63
2021/11/02 03:49:02;;;;;;;4.72;1.80;;;;;;;4.62;100.00;99699.22;2091366;28;20437;-63
2021/11/02 03:54:54;;;;;;;3.72;2.10;;;;;;;4.60;100.00;99695.84;2091298;28;20533;-62
2021/11/02 03:57:21;;;;;;;5.90;2.08;;;;;;;4.62;100.00;99694.03;2090974;28;20448;-63
2021/11/02 03:58:28;;;;;;;3.85;2.03;;;;;;;4.66;100.00;99696.53;2091317;28;20029;-63
2021/11/02 04:01:06;;;;;;;4.95;2.20;;;;;;;4.63;100.00;99695.72;2091331;28;20083;-62
2021/11/02 04:25:50;;;;;;;4.85;1.98;;;;;;;4.67;100.00;99695.63;2091190;28;20497;-63
2021/11/02 04:35:59;;;;;;;3.67;2.13;;;;;;;4.73;100.00;99698.00;2091116;28;20104;-63
2021/11/02 05:20:45;;;;;;;2.67;2.05;;;;;;;4.80;100.00;99704.63;2090820;28;20041;-62
2021/11/02 05:50:51;;;;;;;2.85;1.95;;;;;;;4.71;100.00;99697.19;2090444;28;20082;-63
2021/11/02 05:59:41;;;;;;;7.47;2.30;;;;;;;4.74;100.00;99686.75;2090358;28;20073;-63
2021/11/02 06:00:39;;;;;;;2.67;1.98;;;;;;;4.75;100.00;99693.59;2089992;28;20044;-63
2021/11/02 06:01:55;;;;;;;4.78;2.33;;;;;;;4.77;100.00;99689.22;2090307;28;20390;-63
2021/11/02 06:08:18;;;;;;;4.13;2.13;;;;;;;4.83;100.00;99694.16;2090426;28;20039;-63
2021/11/02 06:09:02;;;;;;;4.40;2.00;;;;;;;4.85;100.00;99688.94;2089658;28;20036;-63
2021/11/02 06:27:57;;;;;;;7.57;2.85;;;;;;;4.98;100.00;99694.50;2090169;28;20025;-63
2021/11/02 06:29:00;;;;;;;5.70;2.65;;;;;;;4.95;100.00;99699.78;2090202;28;20043;-63
2021/11/02 06:30:03;;;;;;;8.52;3.10;;;;;;;4.93;100.00;99701.59;2089471;28;20119;-63
2021/11/02 06:31:17;;;;;;;6.57;2.63;;;;;;;4.91;100.00;99704.22;2089165;28;20482;-63
2021/11/02 06:32:27;;;;;;;7.25;2.67;;;;;;;4.93;100.00;99693.84;2089503;28;20432;-63
2021/11/02 06:33:40;;;;;;;8.85;2.75;;;;;;;4.93;100.00;99693.84;2089671;28;20052;-63
2021/11/02 06:37:23;;;;;;;3.90;2.90;;;;;;;4.91;100.00;99699.06;2090200;28;20434;-62
2021/11/02 06:39:15;;;;;;;7.03;2.88;;;;;;;4.94;100.00;99703.25;2089110;28;20478;-62
2021/11/02 06:44:18;;;;;;;6.82;2.85;;;;;;;5.02;100.00;99701.22;2090186;28;20028;-64
2021/11/02 06:56:37;;;;;;;3.65;2.53;;;;;;;5.26;100.00;99709.81;2090163;28;20091;-63
2021/11/02 07:00:29;;;;;;;4.50;3.03;;;;;;;5.37;100.00;99704.22;2089199;28;20064;-63
2021/11/02 07:15:54;;;;;;;6.30;2.90;;;;;;;5.70;100.00;99722.78;2089968;28;20041;-65
2021/11/02 07:18:18;;;;;;;7.38;3.47;;;;;;;5.75;100.00;99721.72;2090114;28;20029;-65
2021/11/02 07:23:31;;;;;;;7.97;3.30;;;;;;;5.86;100.00;99729.06;2090000;28;20124;-64
2021/11/02 07:24:47;;;;;;;5.63;3.47;;;;;;;5.88;100.00;99732.41;2089291;28;20486;-64
2021/11/02 08:45:26;;;;;;;7.28;4.13;;;;;;;7.11;99.15;99734.13;2091024;28;20478;-64
2021/11/02 08:46:36;;;;;;;6.30;3.70;;;;;;;7.09;99.23;99731.59;2090766;28;20041;-62
2021/11/02 08:47:40;;;;;;;12.50;4.28;;;;;;;7.15;99.22;99735.69;2090219;28;20134;-64
2021/11/02 08:48:41;;;;;;;8.88;4.10;;;;;;;7.22;99.12;99731.03;2090211;28;20086;-64
2021/11/02 08:49:45;;;;;;;;;;;;;;;7.31;99.30;99734.97;2090732;28;20036;-64
2021/11/02 08:50:51;;;;;;;8.60;4.75;;;;;;;7.38;99.16;99730.31;2090883;28;19912;-66
2021/11/02 08:51:56;;;;;;;10.27;4.70;;;;;;;7.42;98.08;99732.72;2090910;28;20013;-65
2021/11/02 08:52:57;;;;;;;8.27;4.60;;;;;;;7.45;98.04;99737.78;2090148;28;20398;-63
2021/11/02 08:53:57;;;;;;;;;;;;;;;7.54;98.31;99730.47;2090335;28;20624;-64
2021/11/02 08:54:57;;;;;;;7.65;4.93;;;;;;;7.58;98.00;99725.06;2090721;28;19944;-64
2021/11/02 08:55:58;;;;;;;7.17;4.60;;;;;;;7.68;98.00;99728.06;2090901;28;20036;-64
2021/11/02 08:56:58;;;;;;;8.33;4.23;;;;;;;7.81;97.73;99722.25;2090847;28;20029;-64
2021/11/02 08:57:59;;;;;;;7.32;4.43;;;;;;;7.81;97.13;99732.66;2090795;28;20017;-64
2021/11/02 08:58:59;;;;;;;6.78;4.05;;;;;;;7.81;97.66;99724.84;2090160;28;20184;-63
2021/11/02 09:00:00;;;;;;;10.57;4.60;;;;;;;7.83;96.94;99726.44;2090240;28;20048;-64
2021/11/02 09:01:02;;;;;;;6.90;4.50;;;;;;;7.83;96.76;99725.59;2090782;28;20503;-64
2021/11/02 09:02:11;;;;;;;9.57;4.82;;;;;;;7.73;96.70;99727.81;2090809;28;20033;-63
2021/11/02 09:03:23;;;;;;;6.30;4.05;;;;;;;7.75;96.90;99725.13;2090258;28;20111;-63
2021/11/02 09:04:29;;;;;;;;;;;;;;;7.82;97.36;99723.94;2090576;28;20505;-65
2021/11/02 09:05:33;;;;;;;6.93;3.92;;;;;;;7.80;97.08;99725.78;2090790;28;19917;-64
2021/11/02 09:06:37;;;;;;;7.00;4.30;;;;;;;7.90;97.50;99726.16;2090852;28;20099;-65
2021/11/02 09:07:38;;;;;;;11.65;4.78;;;;;;;7.90;96.94;99729.59;2090688;28;20223;-65
2021/11/02 09:08:41;;;;;;;7.22;4.32;;;;;;;7.93;96.68;99726.84;2090735;28;20029;-64
2021/11/02 09:09:45;;;;;;;7.15;4.85;;;;;;;7.98;96.18;99730.03;2090788;28;20017;-64
2021/11/02 09:10:47;;;;;;;7.85;4.40;;;;;;;7.95;95.44;99725.03;2090655;28;20104;-65
2021/11/02 09:11:48;;;;;;;13.13;4.78;;;;;;;7.95;96.07;99725.03;2090637;28;20039;-64
2021/11/02 09:12:51;;;;;;;19.30;6.00;;;;;;;7.94;96.53;99733.72;2090734;28;20071;-64
2021/11/02 09:13:55;;;;;;;9.48;4.53;;;;;;;7.87;97.12;99727.13;2090087;28;20025;-65
2021/11/02 09:14:58;;;;;;;9.48;5.55;;;;;;;7.81;96.79;99733.50;2090163;28;20044;-64
2021/11/02 09:16:01;;;;;;;6.68;4.68;;;;;;;7.70;96.96;99730.56;2090097;28;20128;-64
2021/11/02 09:17:03;;;;;;;10.98;5.03;;;;;;;7.68;97.60;99728.06;2090185;28;20025;-65
2021/11/02 09:18:09;;;;;;;8.57;4.50;;;;;;;7.75;97.50;99728.59;2090683;28;20029;-65
2021/11/02 09:19:13;;;;;;;8.90;5.25;;;;;;;7.75;97.17;99732.94;2090729;28;20105;-65
2021/11/02 09:20:16;;;;;;;10.38;4.97;;;;;;;7.76;97.19;99734.63;2090713;28;20090;-64
2021/11/02 09:21:21;;;;;;;8.27;4.40;;;;;;;7.75;96.63;99727.72;2090617;28;20062;-64
2021/11/02 09:22:21;;;;;;;7.45;4.65;;;;;;;7.76;96.83;99726.84;2090637;28;20033;-64
2021/11/02 09:23:22;;;;;;;10.50;5.60;;;;;;;7.73;96.85;99731.25;2090696;28;20399;-64
2021/11/02 09:24:23;;;;;;;7.13;5.00;;;;;;;7.77;97.01;99731.94;2090578;28;20025;-64
2021/11/02 09:25:24;;;;;;;9.43;4.78;;;;;;;7.76;97.11;99732.03;2090631;28;20032;-63
2021/11/02 09:26:25;;;;;;;10.68;4.90;;;;;;;7.76;96.53;99732.84;2090605;28;20025;-64
2021/11/02 09:27:26;;;;;;;7.28;4.60;;;;;;;7.81;96.59;99738.69;2090627;28;20025;-64
2021/11/02 09:28:28;;;;;;;10.07;5.05;;;;;;;7.83;96.39;99738.59;2090595;28;20467;-65
2021/11/02 09:29:29;;;;;;;6.68;4.30;;;;;;;7.87;96.40;99737.53;2090655;28;20111;-64
2021/11/02 09:30:30;;;;;;;10.27;4.90;;;;;;;7.89;96.13;99740.91;2090591;28;20115;-64
2021/11/02 09:31:32;;;;;;;8.32;4.30;;;;;;;7.90;95.93;99726.16;2090462;28;20485;-63
2021/11/02 09:32:35;;;;;;;8.82;4.57;;;;;;;7.95;96.92;99725.03;2090588;28;20029;-63
2021/11/02 09:33:35;;;;;;;10.43;5.47;;;;;;;8.04;97.03;99728.06;2089832;28;20040;-65
2021/11/02 09:34:36;;;;;;;8.80;5.03;;;;;;;8.12;96.27;99731.94;2081656;28;20072;-63
2021/11/02 09:35:37;;;;;;;9.95;5.10;;;;;;;8.11;96.29;99737.25;2081679;28;20360;-64
2021/11/02 09:36:43;;;;;;;7.63;4.85;;;;;;;8.11;96.18;99735.47;2089956;28;20483;-64
2021/11/02 09:37:48;;;;;;;6.68;4.07;;;;;;;8.14;95.75;99731.88;2089861;28;20097;-64
2021/11/02 09:39:01;;;;;;;9.38;4.68;;;;;;;8.18;95.30;99725.59;2090047;28;20359;-65
2021/11/02 09:40:11;;;;;;;8.50;4.57;;;;;;;8.28;95.48;99732.97;2090383;28;20383;-65
2021/11/02 09:41:41;;;;;;;11.10;5.10;;;;;;;8.37;95.23;99729.88;2089854;28;20075;-64
2021/11/02 09:43:01;;;;;;;11.52;5.43;;;;;;;8.42;94.84;99733.06;2090171;28;20021;-63
2021/11/02 09:44:15;;;;;;;8.38;4.50;;;;;;;8.61;94.66;99733.03;2090503;28;20100;-64
2021/11/02 09:45:35;;;;;;;9.43;4.53;;;;;;;8.72;94.01;99726.41;2090446;28;20398;-64
2021/11/02 09:47:12;;;;;;;7.70;4.25;;;;;;;8.87;93.63;99727.38;2089810;28;20013;-64
2021/11/02 09:48:25;;;;;;;10.48;4.40;;;;;;;8.78;92.89;99731.28;2090172;28;20050;-65
2021/11/02 09:49:44;;;;;;;10.90;4.78;;;;;;;8.85;93.70;99731.78;2089785;28;20041;-65
2021/11/02 09:51:13;;;;;;;10.38;5.55;;;;;;;8.88;92.74;99734.25;2090052;28;20110;-64
2021/11/02 09:52:38;;;;;;;7.80;5.05;;;;;;;8.84;92.66;99738.78;2089769;28;20021;-65
2021/11/02 09:53:52;;;;;;;11.43;4.78;;;;;;;8.82;92.50;99732.81;2090128;28;20108;-65
2021/11/02 09:55:07;;;;;;;7.43;4.90;;;;;;;8.92;93.08;99733.16;2090430;28;20020;-63
2021/11/02 09:56:14;;;;;;;10.18;5.63;;;;;;;9.02;92.46;99731.75;2090448;28;20356;-64
2021/11/02 09:57:19;;;;;;;8.35;5.47;;;;;;;9.02;91.42;99731.75;2090399;28;20044;-64
2021/11/02 09:58:56;;;;;;;9.15;5.63;;;;;;;8.92;91.45;99730.56;2089682;28;20124;-64
2021/11/02 10:00:36;;;;;;;8.68;5.10;;;;;;;8.73;91.98;99734.13;2090121;28;20021;-64